sensor_id;sensor_type;location;lat;lon;timestamp;P1;durP1;ratioP1;P2;durP2;ratioP2
57746;SDS011;43580;44.014;20.466;2023-06-26T00:00:55;19.83;;;16.15;;
57746;SDS011;43580;44.014;20.466;2023-06-26T00:03:26;22.60;;;16.67;;
57746;SDS011;43580;44.014;20.466;2023-06-26T00:05:54;21.95;;;16.13;;
57746;SDS011;43580;44.014;20.466;2023-06-26T00:08:25;23.00;;;16.90;;
57746;SDS011;43580;44.014;20.466;2023-06-26T00:10:51;23.63;;;16.58;;
57746;SDS011;43580;44.014;20.466;2023-06-26T00:13:18;23.27;;;18.00;;
57746;SDS011;43580;44.014;20.466;2023-06-26T00:15:44;24.90;;;18.98;;
57746;SDS011;43580;44.014;20.466;2023-06-26T00:18:10;24.17;;;16.80;;
57746;SDS011;43580;44.014;20.466;2023-06-26T00:20:36;26.20;;;18.15;;
57746;SDS011;43580;44.014;20.466;2023-06-26T00:23:02;29.75;;;17.95;;
57746;SDS011;43580;44.014;20.466;2023-06-26T00:25:35;24.23;;;18.67;;
57746;SDS011;43580;44.014;20.466;2023-06-26T00:28:01;23.65;;;17.77;;
57746;SDS011;43580;44.014;20.466;2023-06-26T00:30:27;27.08;;;18.17;;
57746;SDS011;43580;44.014;20.466;2023-06-26T00:32:54;27.65;;;18.83;;
57746;SDS011;43580;44.014;20.466;2023-06-26T00:35:20;23.50;;;17.95;;
57746;SDS011;43580;44.014;20.466;2023-06-26T00:37:46;25.13;;;17.73;;
57746;SDS011;43580;44.014;20.466;2023-06-26T00:40:12;23.58;;;18.30;;
57746;SDS011;43580;44.014;20.466;2023-06-26T00:42:38;25.10;;;18.60;;
57746;SDS011;43580;44.014;20.466;2023-06-26T00:45:04;24.83;;;18.48;;
57746;SDS011;43580;44.014;20.466;2023-06-26T00:47:30;25.23;;;18.60;;
57746;SDS011;43580;44.014;20.466;2023-06-26T00:49:57;27.42;;;20.45;;
57746;SDS011;43580;44.014;20.466;2023-06-26T00:52:24;25.08;;;19.38;;
57746;SDS011;43580;44.014;20.466;2023-06-26T00:54:50;27.73;;;19.02;;
57746;SDS011;43580;44.014;20.466;2023-06-26T00:57:16;23.88;;;19.42;;
57746;SDS011;43580;44.014;20.466;2023-06-26T00:59:42;23.00;;;18.05;;
57746;SDS011;43580;44.014;20.466;2023-06-26T01:02:08;23.90;;;18.02;;
57746;SDS011;43580;44.014;20.466;2023-06-26T01:04:37;24.83;;;18.15;;
57746;SDS011;43580;44.014;20.466;2023-06-26T01:07:11;23.63;;;17.33;;
57746;SDS011;43580;44.014;20.466;2023-06-26T01:09:37;22.73;;;17.23;;
57746;SDS011;43580;44.014;20.466;2023-06-26T01:12:03;23.70;;;18.63;;
57746;SDS011;43580;44.014;20.466;2023-06-26T01:14:29;21.67;;;17.60;;
57746;SDS011;43580;44.014;20.466;2023-06-26T01:16:57;26.60;;;18.35;;
57746;SDS011;43580;44.014;20.466;2023-06-26T01:19:24;25.42;;;19.88;;
57746;SDS011;43580;44.014;20.466;2023-06-26T01:21:58;23.35;;;18.50;;
57746;SDS011;43580;44.014;20.466;2023-06-26T01:24:27;28.08;;;19.20;;
57746;SDS011;43580;44.014;20.466;2023-06-26T01:26:57;22.15;;;18.15;;
57746;SDS011;43580;44.014;20.466;2023-06-26T01:29:25;24.90;;;18.33;;
57746;SDS011;43580;44.014;20.466;2023-06-26T01:31:54;27.50;;;18.83;;
57746;SDS011;43580;44.014;20.466;2023-06-26T01:34:22;25.50;;;19.15;;
57746;SDS011;43580;44.014;20.466;2023-06-26T01:36:48;21.83;;;16.75;;
57746;SDS011;43580;44.014;20.466;2023-06-26T01:39:15;27.80;;;19.52;;
57746;SDS011;43580;44.014;20.466;2023-06-26T01:41:46;23.75;;;19.20;;
57746;SDS011;43580;44.014;20.466;2023-06-26T01:44:23;23.95;;;18.50;;
57746;SDS011;43580;44.014;20.466;2023-06-26T01:54:35;24.25;;;18.35;;
57746;SDS011;43580;44.014;20.466;2023-06-26T01:57:02;23.95;;;18.98;;
57746;SDS011;43580;44.014;20.466;2023-06-26T01:59:30;22.73;;;18.38;;
57746;SDS011;43580;44.014;20.466;2023-06-26T02:01:57;24.67;;;18.05;;
57746;SDS011;43580;44.014;20.466;2023-06-26T02:04:26;24.75;;;18.05;;
57746;SDS011;43580;44.014;20.466;2023-06-26T02:06:52;29.00;;;18.77;;
57746;SDS011;43580;44.014;20.466;2023-06-26T02:09:19;24.00;;;17.15;;
57746;SDS011;43580;44.014;20.466;2023-06-26T02:11:45;25.38;;;17.92;;
57746;SDS011;43580;44.014;20.466;2023-06-26T02:14:12;27.65;;;18.63;;
57746;SDS011;43580;44.014;20.466;2023-06-26T02:16:45;28.55;;;19.20;;
57746;SDS011;43580;44.014;20.466;2023-06-26T02:19:11;23.77;;;18.63;;
57746;SDS011;43580;44.014;20.466;2023-06-26T02:21:37;27.20;;;19.80;;
57746;SDS011;43580;44.014;20.466;2023-06-26T02:24:04;25.70;;;19.38;;
57746;SDS011;43580;44.014;20.466;2023-06-26T02:26:30;24.75;;;19.38;;
57746;SDS011;43580;44.014;20.466;2023-06-26T02:28:56;23.98;;;18.05;;
57746;SDS011;43580;44.014;20.466;2023-06-26T02:31:22;28.38;;;20.15;;
57746;SDS011;43580;44.014;20.466;2023-06-26T02:33:50;32.05;;;20.38;;
57746;SDS011;43580;44.014;20.466;2023-06-26T02:36:16;33.03;;;23.15;;
57746;SDS011;43580;44.014;20.466;2023-06-26T02:38:42;29.77;;;21.23;;
57746;SDS011;43580;44.014;20.466;2023-06-26T02:41:11;30.88;;;22.10;;
57746;SDS011;43580;44.014;20.466;2023-06-26T02:43:37;28.88;;;20.40;;
57746;SDS011;43580;44.014;20.466;2023-06-26T02:46:03;25.58;;;19.65;;
57746;SDS011;43580;44.014;20.466;2023-06-26T02:48:29;27.92;;;19.88;;
57746;SDS011;43580;44.014;20.466;2023-06-26T02:50:55;27.75;;;20.17;;
57746;SDS011;43580;44.014;20.466;2023-06-26T02:53:21;26.63;;;18.38;;
57746;SDS011;43580;44.014;20.466;2023-06-26T02:55:47;27.40;;;20.17;;
57746;SDS011;43580;44.014;20.466;2023-06-26T02:58:13;25.92;;;18.90;;
57746;SDS011;43580;44.014;20.466;2023-06-26T03:00:39;24.23;;;18.77;;
57746;SDS011;43580;44.014;20.466;2023-06-26T03:03:06;26.83;;;18.77;;
57746;SDS011;43580;44.014;20.466;2023-06-26T03:05:35;25.20;;;19.17;;
57746;SDS011;43580;44.014;20.466;2023-06-26T03:08:04;24.92;;;18.98;;
57746;SDS011;43580;44.014;20.466;2023-06-26T03:10:30;23.45;;;17.83;;
57746;SDS011;43580;44.014;20.466;2023-06-26T03:12:56;25.90;;;19.25;;
57746;SDS011;43580;44.014;20.466;2023-06-26T03:15:22;28.25;;;20.25;;
57746;SDS011;43580;44.014;20.466;2023-06-26T03:17:48;25.05;;;19.70;;
57746;SDS011;43580;44.014;20.466;2023-06-26T03:20:14;25.85;;;19.10;;
57746;SDS011;43580;44.014;20.466;2023-06-26T03:22:43;26.73;;;18.90;;
57746;SDS011;43580;44.014;20.466;2023-06-26T03:25:14;23.15;;;18.00;;
57746;SDS011;43580;44.014;20.466;2023-06-26T03:27:40;28.08;;;19.90;;
57746;SDS011;43580;44.014;20.466;2023-06-26T03:30:06;30.08;;;21.77;;
57746;SDS011;43580;44.014;20.466;2023-06-26T03:32:32;32.45;;;22.45;;
57746;SDS011;43580;44.014;20.466;2023-06-26T03:34:58;26.70;;;21.40;;
57746;SDS011;43580;44.014;20.466;2023-06-26T03:37:28;30.67;;;21.70;;
57746;SDS011;43580;44.014;20.466;2023-06-26T03:39:54;26.77;;;20.38;;
57746;SDS011;43580;44.014;20.466;2023-06-26T03:42:20;27.42;;;19.90;;
57746;SDS011;43580;44.014;20.466;2023-06-26T03:44:46;28.90;;;20.13;;
57746;SDS011;43580;44.014;20.466;2023-06-26T03:47:12;29.38;;;19.90;;
57746;SDS011;43580;44.014;20.466;2023-06-26T03:49:38;30.63;;;20.15;;
57746;SDS011;43580;44.014;20.466;2023-06-26T03:52:07;22.63;;;17.95;;
57746;SDS011;43580;44.014;20.466;2023-06-26T03:54:35;22.38;;;18.50;;
57746;SDS011;43580;44.014;20.466;2023-06-26T03:57:01;21.85;;;17.77;;
57746;SDS011;43580;44.014;20.466;2023-06-26T03:59:27;26.33;;;19.08;;
57746;SDS011;43580;44.014;20.466;2023-06-26T04:01:53;24.35;;;18.95;;
57746;SDS011;43580;44.014;20.466;2023-06-26T04:04:19;27.27;;;18.13;;
57746;SDS011;43580;44.014;20.466;2023-06-26T04:06:45;26.05;;;18.00;;
57746;SDS011;43580;44.014;20.466;2023-06-26T04:09:11;24.33;;;17.63;;
57746;SDS011;43580;44.014;20.466;2023-06-26T04:11:38;31.52;;;21.08;;
57746;SDS011;43580;44.014;20.466;2023-06-26T04:14:04;24.60;;;18.58;;
57746;SDS011;43580;44.014;20.466;2023-06-26T04:16:30;27.33;;;18.85;;
57746;SDS011;43580;44.014;20.466;2023-06-26T04:18:58;23.45;;;17.90;;
57746;SDS011;43580;44.014;20.466;2023-06-26T04:21:24;23.27;;;17.20;;
57746;SDS011;43580;44.014;20.466;2023-06-26T04:23:50;24.02;;;16.67;;
57746;SDS011;43580;44.014;20.466;2023-06-26T04:26:16;25.98;;;19.17;;
57746;SDS011;43580;44.014;20.466;2023-06-26T04:28:43;26.75;;;19.48;;
57746;SDS011;43580;44.014;20.466;2023-06-26T04:31:09;24.45;;;19.33;;
57746;SDS011;43580;44.014;20.466;2023-06-26T04:33:35;23.23;;;17.90;;
57746;SDS011;43580;44.014;20.466;2023-06-26T04:36:03;23.10;;;18.15;;
57746;SDS011;43580;44.014;20.466;2023-06-26T04:38:34;22.58;;;17.08;;
57746;SDS011;43580;44.014;20.466;2023-06-26T04:41:00;23.30;;;15.45;;
57746;SDS011;43580;44.014;20.466;2023-06-26T04:43:27;21.25;;;16.23;;
57746;SDS011;43580;44.014;20.466;2023-06-26T04:45:53;20.67;;;14.93;;
57746;SDS011;43580;44.014;20.466;2023-06-26T04:48:19;19.88;;;14.45;;
57746;SDS011;43580;44.014;20.466;2023-06-26T04:50:46;18.02;;;14.32;;
57746;SDS011;43580;44.014;20.466;2023-06-26T04:53:19;18.10;;;13.80;;
57746;SDS011;43580;44.014;20.466;2023-06-26T04:55:45;18.02;;;13.13;;
57746;SDS011;43580;44.014;20.466;2023-06-26T04:58:12;16.77;;;13.20;;
57746;SDS011;43580;44.014;20.466;2023-06-26T05:00:38;17.48;;;13.27;;
57746;SDS011;43580;44.014;20.466;2023-06-26T05:03:07;19.02;;;13.77;;
57746;SDS011;43580;44.014;20.466;2023-06-26T05:05:33;19.52;;;14.18;;
57746;SDS011;43580;44.014;20.466;2023-06-26T05:08:12;18.35;;;13.43;;
57746;SDS011;43580;44.014;20.466;2023-06-26T05:10:38;19.98;;;14.43;;
57746;SDS011;43580;44.014;20.466;2023-06-26T05:13:04;18.13;;;14.15;;
57746;SDS011;43580;44.014;20.466;2023-06-26T05:15:31;17.50;;;13.90;;
57746;SDS011;43580;44.014;20.466;2023-06-26T05:17:57;18.15;;;12.70;;
57746;SDS011;43580;44.014;20.466;2023-06-26T05:20:23;19.27;;;13.68;;
57746;SDS011;43580;44.014;20.466;2023-06-26T05:22:49;17.50;;;12.52;;
57746;SDS011;43580;44.014;20.466;2023-06-26T05:25:15;18.13;;;13.88;;
57746;SDS011;43580;44.014;20.466;2023-06-26T05:27:41;17.13;;;14.10;;
57746;SDS011;43580;44.014;20.466;2023-06-26T05:30:08;18.00;;;13.50;;
57746;SDS011;43580;44.014;20.466;2023-06-26T05:32:34;21.38;;;15.43;;
57746;SDS011;43580;44.014;20.466;2023-06-26T05:35:02;19.88;;;14.00;;
57746;SDS011;43580;44.014;20.466;2023-06-26T05:37:29;17.48;;;13.63;;
57746;SDS011;43580;44.014;20.466;2023-06-26T05:39:59;18.40;;;13.32;;
57746;SDS011;43580;44.014;20.466;2023-06-26T05:42:30;20.48;;;14.77;;
57746;SDS011;43580;44.014;20.466;2023-06-26T05:44:56;17.98;;;14.68;;
57746;SDS011;43580;44.014;20.466;2023-06-26T05:47:22;18.63;;;13.32;;
57746;SDS011;43580;44.014;20.466;2023-06-26T05:49:48;20.27;;;15.57;;
57746;SDS011;43580;44.014;20.466;2023-06-26T05:52:15;20.38;;;16.42;;
57746;SDS011;43580;44.014;20.466;2023-06-26T05:54:41;20.45;;;17.10;;
57746;SDS011;43580;44.014;20.466;2023-06-26T05:57:07;21.40;;;17.13;;
57746;SDS011;43580;44.014;20.466;2023-06-26T05:59:33;21.27;;;16.60;;
57746;SDS011;43580;44.014;20.466;2023-06-26T06:02:02;23.90;;;17.90;;
57746;SDS011;43580;44.014;20.466;2023-06-26T06:04:28;22.60;;;16.95;;
57746;SDS011;43580;44.014;20.466;2023-06-26T06:06:54;22.23;;;16.83;;
57746;SDS011;43580;44.014;20.466;2023-06-26T06:09:20;21.35;;;16.27;;
57746;SDS011;43580;44.014;20.466;2023-06-26T06:11:46;22.08;;;17.75;;
57746;SDS011;43580;44.014;20.466;2023-06-26T06:14:12;23.23;;;19.13;;
57746;SDS011;43580;44.014;20.466;2023-06-26T06:16:38;26.48;;;19.13;;
57746;SDS011;43580;44.014;20.466;2023-06-26T06:19:04;23.30;;;18.85;;
57746;SDS011;43580;44.014;20.466;2023-06-26T06:21:32;21.85;;;18.75;;
57746;SDS011;43580;44.014;20.466;2023-06-26T06:23:58;22.75;;;18.60;;
57746;SDS011;43580;44.014;20.466;2023-06-26T06:26:26;23.73;;;19.40;;
57746;SDS011;43580;44.014;20.466;2023-06-26T06:28:52;25.20;;;20.17;;
57746;SDS011;43580;44.014;20.466;2023-06-26T06:31:18;24.15;;;19.52;;
57746;SDS011;43580;44.014;20.466;2023-06-26T06:33:46;21.05;;;18.23;;
57746;SDS011;43580;44.014;20.466;2023-06-26T06:36:12;25.98;;;21.42;;
57746;SDS011;43580;44.014;20.466;2023-06-26T06:38:41;26.80;;;20.73;;
57746;SDS011;43580;44.014;20.466;2023-06-26T06:41:08;24.88;;;21.58;;
57746;SDS011;43580;44.014;20.466;2023-06-26T06:43:35;26.33;;;20.80;;
57746;SDS011;43580;44.014;20.466;2023-06-26T06:46:01;26.77;;;20.77;;
57746;SDS011;43580;44.014;20.466;2023-06-26T06:48:34;22.45;;;20.15;;
57746;SDS011;43580;44.014;20.466;2023-06-26T06:51:01;22.23;;;19.10;;
57746;SDS011;43580;44.014;20.466;2023-06-26T06:53:27;25.15;;;22.23;;
57746;SDS011;43580;44.014;20.466;2023-06-26T06:55:53;23.40;;;20.80;;
57746;SDS011;43580;44.014;20.466;2023-06-26T06:58:19;22.38;;;19.98;;
57746;SDS011;43580;44.014;20.466;2023-06-26T07:00:45;23.30;;;19.67;;
57746;SDS011;43580;44.014;20.466;2023-06-26T07:03:14;25.20;;;20.00;;
57746;SDS011;43580;44.014;20.466;2023-06-26T07:05:43;21.52;;;19.23;;
57746;SDS011;43580;44.014;20.466;2023-06-26T07:08:09;23.98;;;21.17;;
57746;SDS011;43580;44.014;20.466;2023-06-26T07:10:36;21.10;;;18.63;;
57746;SDS011;43580;44.014;20.466;2023-06-26T07:13:02;20.73;;;18.13;;
57746;SDS011;43580;44.014;20.466;2023-06-26T07:15:28;20.30;;;18.17;;
57746;SDS011;43580;44.014;20.466;2023-06-26T07:17:56;19.98;;;17.88;;
57746;SDS011;43580;44.014;20.466;2023-06-26T07:20:22;20.38;;;18.13;;
57746;SDS011;43580;44.014;20.466;2023-06-26T07:22:48;21.83;;;19.27;;
57746;SDS011;43580;44.014;20.466;2023-06-26T07:25:14;18.60;;;16.38;;
57746;SDS011;43580;44.014;20.466;2023-06-26T07:27:41;17.25;;;15.55;;
57746;SDS011;43580;44.014;20.466;2023-06-26T07:30:07;18.15;;;14.70;;
57746;SDS011;43580;44.014;20.466;2023-06-26T07:32:34;17.27;;;15.20;;
57746;SDS011;43580;44.014;20.466;2023-06-26T07:35:00;15.27;;;12.85;;
57746;SDS011;43580;44.014;20.466;2023-06-26T07:37:26;14.80;;;13.30;;
57746;SDS011;43580;44.014;20.466;2023-06-26T07:39:52;14.05;;;12.48;;
57746;SDS011;43580;44.014;20.466;2023-06-26T07:42:18;14.45;;;12.38;;
57746;SDS011;43580;44.014;20.466;2023-06-26T07:44:45;14.93;;;12.82;;
57746;SDS011;43580;44.014;20.466;2023-06-26T07:47:13;13.98;;;12.48;;
57746;SDS011;43580;44.014;20.466;2023-06-26T07:49:39;14.80;;;12.18;;
57746;SDS011;43580;44.014;20.466;2023-06-26T07:52:05;9.82;;;8.77;;
57746;SDS011;43580;44.014;20.466;2023-06-26T07:54:31;12.15;;;9.40;;
57746;SDS011;43580;44.014;20.466;2023-06-26T07:57:01;9.38;;;8.38;;
57746;SDS011;43580;44.014;20.466;2023-06-26T07:59:27;12.63;;;9.02;;
57746;SDS011;43580;44.014;20.466;2023-06-26T08:01:54;12.20;;;9.48;;
57746;SDS011;43580;44.014;20.466;2023-06-26T08:04:21;11.32;;;8.80;;
57746;SDS011;43580;44.014;20.466;2023-06-26T08:06:48;13.10;;;8.57;;
57746;SDS011;43580;44.014;20.466;2023-06-26T08:09:14;9.18;;;8.13;;
57746;SDS011;43580;44.014;20.466;2023-06-26T08:11:40;15.38;;;8.60;;
57746;SDS011;43580;44.014;20.466;2023-06-26T08:14:06;10.68;;;8.40;;
57746;SDS011;43580;44.014;20.466;2023-06-26T08:16:32;10.15;;;8.43;;
57746;SDS011;43580;44.014;20.466;2023-06-26T08:19:01;13.90;;;9.88;;
57746;SDS011;43580;44.014;20.466;2023-06-26T08:21:27;13.73;;;9.30;;
57746;SDS011;43580;44.014;20.466;2023-06-26T08:23:54;8.50;;;7.60;;
57746;SDS011;43580;44.014;20.466;2023-06-26T08:26:25;15.07;;;9.20;;
57746;SDS011;43580;44.014;20.466;2023-06-26T08:28:51;12.80;;;8.85;;
57746;SDS011;43580;44.014;20.466;2023-06-26T08:31:17;10.70;;;8.52;;
57746;SDS011;43580;44.014;20.466;2023-06-26T08:33:44;10.75;;;8.70;;
57746;SDS011;43580;44.014;20.466;2023-06-26T08:36:10;16.10;;;8.70;;
57746;SDS011;43580;44.014;20.466;2023-06-26T08:38:36;9.13;;;7.22;;
57746;SDS011;43580;44.014;20.466;2023-06-26T08:41:05;11.40;;;7.95;;
57746;SDS011;43580;44.014;20.466;2023-06-26T08:43:31;10.07;;;8.10;;
57746;SDS011;43580;44.014;20.466;2023-06-26T08:45:57;11.13;;;7.93;;
57746;SDS011;43580;44.014;20.466;2023-06-26T08:48:23;11.65;;;7.45;;
57746;SDS011;43580;44.014;20.466;2023-06-26T08:50:49;8.82;;;7.15;;
57746;SDS011;43580;44.014;20.466;2023-06-26T08:55:43;7.75;;;5.95;;
57746;SDS011;43580;44.014;20.466;2023-06-26T08:58:10;8.80;;;6.38;;
57746;SDS011;43580;44.014;20.466;2023-06-26T09:00:37;12.40;;;6.97;;
57746;SDS011;43580;44.014;20.466;2023-06-26T09:03:08;8.25;;;6.38;;
57746;SDS011;43580;44.014;20.466;2023-06-26T09:05:35;9.00;;;7.32;;
57746;SDS011;43580;44.014;20.466;2023-06-26T09:08:04;8.20;;;6.28;;
57746;SDS011;43580;44.014;20.466;2023-06-26T09:10:30;8.45;;;5.93;;
57746;SDS011;43580;44.014;20.466;2023-06-26T09:12:56;7.47;;;5.72;;
57746;SDS011;43580;44.014;20.466;2023-06-26T09:15:23;10.27;;;6.93;;
57746;SDS011;43580;44.014;20.466;2023-06-26T09:17:49;8.95;;;6.20;;
57746;SDS011;43580;44.014;20.466;2023-06-26T09:20:15;8.73;;;6.80;;
57746;SDS011;43580;44.014;20.466;2023-06-26T09:22:42;9.07;;;6.47;;
57746;SDS011;43580;44.014;20.466;2023-06-26T09:25:13;8.63;;;6.60;;
57746;SDS011;43580;44.014;20.466;2023-06-26T09:27:39;7.60;;;6.80;;
57746;SDS011;43580;44.014;20.466;2023-06-26T09:30:07;11.05;;;7.57;;
57746;SDS011;43580;44.014;20.466;2023-06-26T09:32:36;8.18;;;7.25;;
57746;SDS011;43580;44.014;20.466;2023-06-26T09:35:03;10.00;;;7.13;;
57746;SDS011;43580;44.014;20.466;2023-06-26T09:37:32;9.32;;;7.43;;
57746;SDS011;43580;44.014;20.466;2023-06-26T09:39:58;10.45;;;7.50;;
57746;SDS011;43580;44.014;20.466;2023-06-26T09:42:24;8.20;;;7.30;;
57746;SDS011;43580;44.014;20.466;2023-06-26T09:44:50;9.00;;;7.25;;
57746;SDS011;43580;44.014;20.466;2023-06-26T09:47:18;10.30;;;7.63;;
57746;SDS011;43580;44.014;20.466;2023-06-26T09:49:44;8.27;;;6.25;;
57746;SDS011;43580;44.014;20.466;2023-06-26T09:52:17;11.50;;;7.68;;
57746;SDS011;43580;44.014;20.466;2023-06-26T09:54:44;8.50;;;7.07;;
57746;SDS011;43580;44.014;20.466;2023-06-26T09:57:15;10.43;;;7.22;;
57746;SDS011;43580;44.014;20.466;2023-06-26T09:59:42;11.85;;;6.82;;
57746;SDS011;43580;44.014;20.466;2023-06-26T10:02:11;10.30;;;7.75;;
57746;SDS011;43580;44.014;20.466;2023-06-26T10:04:38;7.82;;;7.00;;
57746;SDS011;43580;44.014;20.466;2023-06-26T10:07:13;8.48;;;7.57;;
57746;SDS011;43580;44.014;20.466;2023-06-26T10:09:42;9.32;;;7.40;;
57746;SDS011;43580;44.014;20.466;2023-06-26T10:14:40;12.90;;;7.60;;
57746;SDS011;43580;44.014;20.466;2023-06-26T10:17:09;7.88;;;7.07;;
57746;SDS011;43580;44.014;20.466;2023-06-26T10:19:36;8.73;;;7.55;;
57746;SDS011;43580;44.014;20.466;2023-06-26T10:22:03;7.32;;;6.53;;
57746;SDS011;43580;44.014;20.466;2023-06-26T10:24:31;10.32;;;7.38;;
57746;SDS011;43580;44.014;20.466;2023-06-26T10:26:59;9.95;;;7.88;;
57746;SDS011;43580;44.014;20.466;2023-06-26T10:29:27;11.10;;;6.95;;
57746;SDS011;43580;44.014;20.466;2023-06-26T10:31:56;10.43;;;7.30;;
57746;SDS011;43580;44.014;20.466;2023-06-26T10:34:22;11.38;;;6.72;;
57746;SDS011;43580;44.014;20.466;2023-06-26T10:36:58;11.02;;;7.03;;
57746;SDS011;43580;44.014;20.466;2023-06-26T10:39:24;10.20;;;6.60;;
57746;SDS011;43580;44.014;20.466;2023-06-26T10:41:50;10.02;;;6.78;;
57746;SDS011;43580;44.014;20.466;2023-06-26T10:44:21;8.95;;;7.03;;
57746;SDS011;43580;44.014;20.466;2023-06-26T10:46:54;9.43;;;6.80;;
57746;SDS011;43580;44.014;20.466;2023-06-26T10:49:21;9.80;;;7.30;;
57746;SDS011;43580;44.014;20.466;2023-06-26T10:51:50;11.05;;;7.63;;
57746;SDS011;43580;44.014;20.466;2023-06-26T10:54:17;9.88;;;7.43;;
57746;SDS011;43580;44.014;20.466;2023-06-26T10:56:44;11.10;;;7.18;;
57746;SDS011;43580;44.014;20.466;2023-06-26T10:59:11;10.35;;;6.93;;
57746;SDS011;43580;44.014;20.466;2023-06-26T11:01:40;7.90;;;6.43;;
57746;SDS011;43580;44.014;20.466;2023-06-26T11:04:07;9.75;;;7.00;;
57746;SDS011;43580;44.014;20.466;2023-06-26T11:06:36;7.93;;;6.70;;
57746;SDS011;43580;44.014;20.466;2023-06-26T11:14:14;12.93;;;6.82;;
57746;SDS011;43580;44.014;20.466;2023-06-26T11:16:42;7.22;;;6.32;;
57746;SDS011;43580;44.014;20.466;2023-06-26T11:19:08;7.80;;;6.63;;
57746;SDS011;43580;44.014;20.466;2023-06-26T11:21:35;10.55;;;6.20;;
57746;SDS011;43580;44.014;20.466;2023-06-26T11:24:06;11.65;;;6.68;;
57746;SDS011;43580;44.014;20.466;2023-06-26T11:26:38;13.25;;;8.05;;
57746;SDS011;43580;44.014;20.466;2023-06-26T11:29:04;7.95;;;6.05;;
57746;SDS011;43580;44.014;20.466;2023-06-26T11:31:31;11.95;;;6.90;;
57746;SDS011;43580;44.014;20.466;2023-06-26T11:33:58;13.93;;;6.70;;
57746;SDS011;43580;44.014;20.466;2023-06-26T11:36:25;9.30;;;6.47;;
57746;SDS011;43580;44.014;20.466;2023-06-26T11:38:55;10.18;;;6.78;;
57746;SDS011;43580;44.014;20.466;2023-06-26T11:41:22;11.20;;;7.18;;
57746;SDS011;43580;44.014;20.466;2023-06-26T11:43:48;8.57;;;6.30;;
57746;SDS011;43580;44.014;20.466;2023-06-26T11:46:16;7.90;;;6.90;;
57746;SDS011;43580;44.014;20.466;2023-06-26T11:48:43;9.18;;;6.32;;
57746;SDS011;43580;44.014;20.466;2023-06-26T11:51:09;8.57;;;6.75;;
57746;SDS011;43580;44.014;20.466;2023-06-26T11:53:42;12.55;;;7.13;;
57746;SDS011;43580;44.014;20.466;2023-06-26T11:56:09;11.00;;;9.23;;
57746;SDS011;43580;44.014;20.466;2023-06-26T11:58:36;11.55;;;8.07;;
57746;SDS011;43580;44.014;20.466;2023-06-26T12:01:02;10.40;;;7.75;;
57746;SDS011;43580;44.014;20.466;2023-06-26T12:03:28;8.20;;;6.93;;
57746;SDS011;43580;44.014;20.466;2023-06-26T12:05:57;12.70;;;7.97;;
57746;SDS011;43580;44.014;20.466;2023-06-26T12:08:24;17.10;;;11.38;;
57746;SDS011;43580;44.014;20.466;2023-06-26T12:10:50;9.70;;;7.38;;
57746;SDS011;43580;44.014;20.466;2023-06-26T12:13:16;11.55;;;7.32;;
57746;SDS011;43580;44.014;20.466;2023-06-26T12:15:42;9.55;;;7.40;;
57746;SDS011;43580;44.014;20.466;2023-06-26T12:18:09;13.23;;;8.15;;
57746;SDS011;43580;44.014;20.466;2023-06-26T12:20:39;16.10;;;8.10;;
57746;SDS011;43580;44.014;20.466;2023-06-26T12:23:11;9.77;;;7.55;;
57746;SDS011;43580;44.014;20.466;2023-06-26T12:25:37;12.57;;;7.03;;
57746;SDS011;43580;44.014;20.466;2023-06-26T12:28:03;8.05;;;7.10;;
57746;SDS011;43580;44.014;20.466;2023-06-26T12:30:29;11.30;;;7.20;;
57746;SDS011;43580;44.014;20.466;2023-06-26T12:32:55;7.72;;;6.88;;
57746;SDS011;43580;44.014;20.466;2023-06-26T12:35:22;10.07;;;7.47;;
57746;SDS011;43580;44.014;20.466;2023-06-26T12:37:48;11.15;;;7.78;;
57746;SDS011;43580;44.014;20.466;2023-06-26T12:40:17;9.55;;;7.93;;
57746;SDS011;43580;44.014;20.466;2023-06-26T12:42:45;10.93;;;6.88;;
57746;SDS011;43580;44.014;20.466;2023-06-26T12:45:12;8.70;;;7.80;;
57746;SDS011;43580;44.014;20.466;2023-06-26T12:47:41;9.32;;;7.65;;
57746;SDS011;43580;44.014;20.466;2023-06-26T12:50:07;12.48;;;8.27;;
57746;SDS011;43580;44.014;20.466;2023-06-26T12:52:36;11.13;;;7.82;;
57746;SDS011;43580;44.014;20.466;2023-06-26T12:55:03;10.10;;;8.75;;
57746;SDS011;43580;44.014;20.466;2023-06-26T12:57:31;11.48;;;7.55;;
57746;SDS011;43580;44.014;20.466;2023-06-26T12:59:57;9.10;;;7.00;;
57746;SDS011;43580;44.014;20.466;2023-06-26T13:02:25;15.98;;;7.90;;
57746;SDS011;43580;44.014;20.466;2023-06-26T13:04:51;11.02;;;7.53;;
57746;SDS011;43580;44.014;20.466;2023-06-26T13:07:17;8.77;;;7.35;;
57746;SDS011;43580;44.014;20.466;2023-06-26T13:09:43;11.05;;;7.82;;
57746;SDS011;43580;44.014;20.466;2023-06-26T13:12:11;11.70;;;7.20;;
57746;SDS011;43580;44.014;20.466;2023-06-26T13:14:37;10.77;;;7.50;;
57746;SDS011;43580;44.014;20.466;2023-06-26T13:17:03;8.88;;;7.32;;
57746;SDS011;43580;44.014;20.466;2023-06-26T13:19:29;12.63;;;7.10;;
57746;SDS011;43580;44.014;20.466;2023-06-26T13:21:56;14.27;;;7.97;;
57746;SDS011;43580;44.014;20.466;2023-06-26T13:24:22;11.38;;;7.45;;
57746;SDS011;43580;44.014;20.466;2023-06-26T13:26:48;13.05;;;7.75;;
57746;SDS011;43580;44.014;20.466;2023-06-26T13:29:14;8.73;;;7.20;;
57746;SDS011;43580;44.014;20.466;2023-06-26T13:31:41;13.10;;;8.48;;
57746;SDS011;43580;44.014;20.466;2023-06-26T13:34:07;9.38;;;7.50;;
57746;SDS011;43580;44.014;20.466;2023-06-26T13:36:33;13.00;;;8.43;;
57746;SDS011;43580;44.014;20.466;2023-06-26T13:38:59;12.90;;;9.10;;
57746;SDS011;43580;44.014;20.466;2023-06-26T13:41:25;12.73;;;7.90;;
57746;SDS011;43580;44.014;20.466;2023-06-26T13:43:53;10.50;;;7.97;;
57746;SDS011;43580;44.014;20.466;2023-06-26T13:46:19;8.30;;;7.32;;
57746;SDS011;43580;44.014;20.466;2023-06-26T13:48:45;9.18;;;7.47;;
57746;SDS011;43580;44.014;20.466;2023-06-26T13:51:11;14.02;;;8.35;;
57746;SDS011;43580;44.014;20.466;2023-06-26T13:53:37;10.80;;;7.55;;
57746;SDS011;43580;44.014;20.466;2023-06-26T13:56:03;8.13;;;7.32;;
57746;SDS011;43580;44.014;20.466;2023-06-26T13:58:29;11.45;;;6.78;;
57746;SDS011;43580;44.014;20.466;2023-06-26T14:00:57;9.02;;;6.75;;
57746;SDS011;43580;44.014;20.466;2023-06-26T14:03:23;8.05;;;7.07;;
57746;SDS011;43580;44.014;20.466;2023-06-26T14:05:49;7.97;;;6.60;;
57746;SDS011;43580;44.014;20.466;2023-06-26T14:08:16;9.77;;;6.55;;
57746;SDS011;43580;44.014;20.466;2023-06-26T14:10:42;13.48;;;7.30;;
57746;SDS011;43580;44.014;20.466;2023-06-26T14:13:08;10.02;;;6.43;;
57746;SDS011;43580;44.014;20.466;2023-06-26T14:15:36;8.82;;;6.80;;
57746;SDS011;43580;44.014;20.466;2023-06-26T14:18:05;8.43;;;6.30;;
57746;SDS011;43580;44.014;20.466;2023-06-26T14:20:33;9.27;;;6.78;;
57746;SDS011;43580;44.014;20.466;2023-06-26T14:23:02;8.20;;;6.72;;
57746;SDS011;43580;44.014;20.466;2023-06-26T14:25:28;7.97;;;6.47;;
57746;SDS011;43580;44.014;20.466;2023-06-26T14:27:57;8.00;;;6.82;;
57746;SDS011;43580;44.014;20.466;2023-06-26T14:30:26;7.63;;;6.90;;
57746;SDS011;43580;44.014;20.466;2023-06-26T14:32:52;10.73;;;7.38;;
57746;SDS011;43580;44.014;20.466;2023-06-26T14:35:18;9.32;;;7.30;;